createdAt,value
2018-08-10T00:00:22.207Z,66.95
2018-08-10T00:03:26.811Z,66.39
2018-08-10T00:05:55.370Z,66.53
2018-08-10T00:08:23.814Z,64.71
2018-08-10T00:10:52.271Z,65.64
2018-08-10T00:13:20.882Z,66.14
2018-08-10T00:15:49.251Z,65.02
2018-08-10T00:18:17.787Z,66.57
2018-08-10T00:20:46.211Z,67.24
2018-08-10T00:23:14.619Z,66.74
2018-08-10T00:25:43.143Z,66.97
2018-08-10T00:28:11.689Z,66.94
2018-08-10T00:30:40.155Z,67.90
2018-08-10T00:33:08.635Z,68.10
2018-08-10T00:35:37.501Z,65.76
2018-08-10T00:38:05.975Z,66.86
2018-08-10T00:40:34.527Z,65.61
2018-08-10T00:43:03.022Z,66.16
2018-08-10T00:45:31.507Z,65.17
2018-08-10T00:48:00.008Z,65.38
2018-08-10T00:50:28.605Z,64.33
2018-08-10T00:52:57.115Z,64.96
2018-08-10T00:55:25.559Z,65.06
2018-08-10T00:57:54.226Z,66.37
2018-08-10T01:00:24.030Z,64.76
2018-08-10T01:02:53.386Z,65.44
2018-08-10T01:05:22.080Z,66.03
2018-08-10T01:07:50.683Z,65.17
2018-08-10T01:10:20.488Z,65.49
2018-08-10T01:12:49.159Z,66.25
2018-08-10T01:15:18.259Z,66.30
2018-08-10T01:17:47.340Z,65.20
2018-08-10T01:20:20.361Z,64.62
2018-08-10T01:22:54.155Z,63.89
2018-08-10T01:25:23.919Z,65.20
2018-08-10T01:27:55.649Z,65.69
2018-08-10T01:30:24.987Z,65.70
2018-08-10T01:32:54.019Z,65.49
2018-08-10T01:35:23.204Z,65.72
2018-08-10T01:37:51.627Z,64.91
2018-08-10T01:40:20.063Z,64.91
2018-08-10T01:42:48.687Z,65.62
2018-08-10T01:45:17.367Z,66.52
2018-08-10T01:47:45.818Z,65.99
2018-08-10T01:50:14.411Z,64.25
2018-08-10T01:52:43.210Z,66.24
2018-08-10T01:55:12.047Z,65.66
2018-08-10T01:57:40.911Z,66.04
2018-08-10T02:00:10.299Z,66.53
2018-08-10T02:02:39.006Z,66.19
2018-08-10T02:05:10.731Z,67.15
2018-08-10T02:07:39.986Z,66.13
2018-08-10T02:10:10.716Z,66.95
2018-08-10T02:12:39.870Z,65.46
2018-08-10T02:15:10.573Z,64.55
2018-08-10T02:17:39.512Z,66.87
2018-08-10T02:20:10.447Z,65.86
2018-08-10T02:22:38.915Z,67.56
2018-08-10T02:25:09.154Z,66.62
2018-08-10T02:27:37.615Z,65.44
2018-08-10T02:30:08.070Z,66.32
2018-08-10T02:32:36.935Z,66.69
2018-08-10T02:35:06.007Z,67.95
2018-08-10T02:37:34.599Z,67.17
2018-08-10T02:40:03.360Z,66.64
2018-08-10T02:42:31.907Z,66.19
2018-08-10T02:45:00.355Z,66.62
2018-08-10T02:47:28.814Z,66.51
2018-08-10T02:49:57.291Z,67.97
2018-08-10T02:52:25.807Z,68.46
2018-08-10T02:54:54.809Z,67.99
2018-08-10T02:57:23.227Z,68.33
2018-08-10T02:59:51.665Z,68.85
2018-08-10T03:02:20.628Z,69.17
2018-08-10T03:04:49.115Z,69.56
2018-08-10T03:07:17.572Z,69.95
2018-08-10T03:09:46.062Z,70.16
2018-08-10T03:12:14.547Z,70.31
2018-08-10T03:14:43.547Z,68.96
2018-08-10T03:17:12.600Z,69.62
2018-08-10T03:19:41.057Z,70.03
2018-08-10T03:22:09.573Z,70.80
2018-08-10T03:24:38.288Z,71.38
2018-08-10T03:27:07.769Z,69.39
2018-08-10T03:29:36.559Z,70.83
2018-08-10T03:32:05.328Z,71.59
2018-08-10T03:34:33.739Z,71.82
2018-08-10T03:37:02.188Z,69.94
2018-08-10T03:39:30.788Z,70.40
2018-08-10T03:41:59.340Z,71.82
2018-08-10T03:44:27.751Z,72.27
2018-08-10T03:46:56.219Z,72.64
2018-08-10T03:49:24.675Z,73.45
2018-08-10T03:51:53.424Z,74.71
2018-08-10T03:54:22.238Z,75.62
2018-08-10T03:56:50.780Z,75.63
2018-08-10T03:59:19.275Z,76.32
2018-08-10T04:01:48.043Z,77.03
2018-08-10T04:04:16.455Z,78.81
2018-08-10T04:06:45.097Z,78.86
2018-08-10T04:09:13.971Z,78.00
2018-08-10T04:11:43.327Z,80.33
2018-08-10T04:14:11.912Z,80.71
2018-08-10T04:16:40.896Z,82.20
2018-08-10T04:19:09.424Z,81.08
2018-08-10T04:21:37.949Z,81.65
2018-08-10T04:24:06.454Z,82.01
2018-08-10T04:26:34.863Z,83.71
2018-08-10T04:29:03.455Z,83.59
2018-08-10T04:31:31.994Z,83.81
2018-08-10T04:34:00.377Z,83.54
2018-08-10T04:36:28.801Z,83.97
2018-08-10T04:38:57.509Z,83.74
2018-08-10T04:41:25.922Z,84.13
2018-08-10T04:43:54.429Z,83.21
2018-08-10T04:46:22.914Z,82.05
2018-08-10T04:48:51.528Z,81.99
2018-08-10T04:51:19.987Z,80.94
2018-08-10T04:53:48.543Z,81.33
2018-08-10T04:56:17.007Z,78.46
2018-08-10T04:58:45.500Z,74.15
2018-08-10T05:01:14.158Z,71.70
2018-08-10T05:03:42.620Z,69.30
2018-08-10T05:06:11.175Z,68.56
2018-08-10T05:08:39.685Z,66.42
2018-08-10T05:11:08.176Z,65.90
2018-08-10T05:13:36.658Z,64.62
2018-08-10T05:16:05.217Z,64.31
2018-08-10T05:18:33.748Z,64.60
2018-08-10T05:21:02.239Z,63.18
2018-08-10T05:23:31.297Z,62.71
2018-08-10T05:25:59.897Z,62.82
2018-08-10T05:28:28.572Z,60.25
2018-08-10T05:30:57.203Z,59.61
2018-08-10T05:33:25.667Z,59.75
2018-08-10T05:35:54.118Z,59.89
2018-08-10T05:38:22.683Z,60.39
2018-08-10T05:40:51.106Z,60.23
2018-08-10T05:43:19.598Z,59.07
2018-08-10T05:45:48.104Z,59.43
2018-08-10T05:48:16.648Z,59.57
2018-08-10T05:50:45.335Z,59.36
2018-08-10T05:53:14.187Z,59.61
2018-08-10T05:55:42.715Z,58.85
2018-08-10T05:58:11.186Z,57.55
2018-08-10T06:00:39.825Z,58.08
2018-08-10T06:03:08.260Z,57.64
2018-08-10T06:05:36.803Z,57.10
2018-08-10T06:08:05.319Z,57.68
2018-08-10T06:10:33.761Z,58.75
2018-08-10T06:13:02.320Z,57.82
2018-08-10T06:15:30.861Z,58.59
2018-08-10T06:17:59.378Z,58.94
2018-08-10T06:20:27.853Z,58.37
2018-08-10T06:22:56.620Z,59.53
2018-08-10T06:25:24.953Z,58.66
2018-08-10T06:27:53.420Z,59.07
2018-08-10T06:30:21.891Z,58.28
2018-08-10T06:32:50.327Z,59.07
2018-08-10T06:35:18.761Z,58.82
2018-08-10T06:37:47.218Z,59.42
2018-08-10T06:40:15.704Z,59.33
2018-08-10T06:42:44.155Z,58.08
2018-08-10T06:45:12.733Z,60.88
2018-08-10T06:47:41.004Z,61.85
2018-08-10T06:50:09.507Z,60.26
2018-08-10T06:52:38.223Z,59.76
2018-08-10T06:55:06.639Z,59.85
2018-08-10T06:57:35.611Z,59.37
2018-08-10T07:00:05.131Z,58.88
2018-08-10T07:02:33.544Z,60.19
2018-08-10T07:05:01.980Z,59.06
2018-08-10T07:07:30.620Z,59.64
2018-08-10T07:09:59.276Z,59.90
2018-08-10T07:12:27.675Z,58.70
2018-08-10T07:14:56.306Z,58.41
2018-08-10T07:17:24.771Z,59.43
2018-08-10T07:19:53.177Z,58.76
2018-08-10T07:22:21.651Z,59.30
2018-08-10T07:24:50.111Z,58.87
2018-08-10T07:27:18.566Z,57.97
2018-08-10T07:29:46.984Z,57.14
2018-08-10T07:32:15.383Z,57.72
2018-08-10T07:34:43.882Z,57.09
2018-08-10T07:37:12.310Z,57.01
2018-08-10T07:39:40.847Z,56.96
2018-08-10T07:42:09.284Z,55.52
2018-08-10T07:44:37.793Z,55.82
2018-08-10T07:47:06.331Z,56.57
2018-08-10T07:49:34.767Z,55.21
2018-08-10T07:52:03.372Z,55.85
2018-08-10T07:54:31.831Z,54.11
2018-08-10T07:57:00.329Z,52.94
2018-08-10T07:59:28.849Z,53.82
2018-08-10T08:01:57.318Z,53.77
2018-08-10T08:04:25.744Z,53.51
2018-08-10T08:06:54.381Z,54.23
2018-08-10T08:09:22.824Z,55.06
2018-08-10T08:11:51.203Z,55.07
2018-08-10T08:14:19.736Z,53.81
2018-08-10T08:16:48.139Z,53.53
2018-08-10T08:19:16.919Z,52.06
2018-08-10T08:22:11.507Z,51.41
2018-08-10T08:24:40.809Z,51.22
2018-08-10T08:27:09.820Z,52.21
2018-08-10T08:29:38.392Z,51.19
2018-08-10T08:32:07.135Z,49.78
2018-08-10T08:34:35.603Z,49.76
2018-08-10T08:37:04.863Z,51.35
2018-08-10T08:40:45.767Z,49.93
2018-08-10T08:43:14.859Z,50.14
2018-08-10T08:45:49.576Z,49.07
2018-08-10T08:48:18.028Z,49.36
2018-08-10T08:50:48.000Z,49.11
2018-08-10T08:53:16.387Z,50.51
2018-08-10T08:55:51.259Z,50.66
2018-08-10T08:58:19.943Z,49.12
2018-08-10T09:00:48.406Z,48.77
2018-08-10T09:03:28.747Z,49.53
2018-08-10T09:05:57.710Z,48.46
2018-08-10T09:08:26.135Z,48.99
2018-08-10T09:10:56.064Z,47.97
2018-08-10T09:13:25.311Z,48.72
2018-08-10T09:15:53.922Z,49.32
2018-08-10T09:18:22.399Z,49.42
2018-08-10T09:20:51.237Z,51.26
2018-08-10T09:23:19.757Z,50.56
2018-08-10T09:25:48.479Z,50.10
2018-08-10T09:28:16.855Z,51.20
2018-08-10T09:30:45.423Z,51.35
2018-08-10T09:33:13.995Z,51.93
2018-08-10T09:35:42.503Z,49.67
2018-08-10T09:38:10.919Z,48.39
2018-08-10T09:40:39.449Z,49.21
2018-08-10T09:43:07.860Z,45.23
2018-08-10T09:45:36.360Z,46.81
2018-08-10T09:48:05.171Z,45.74
2018-08-10T09:50:33.663Z,44.91
2018-08-10T09:53:03.466Z,45.43
2018-08-10T09:55:36.430Z,45.33
2018-08-10T09:58:09.274Z,45.73
2018-08-10T10:00:43.024Z,45.18
2018-08-10T10:03:17.575Z,44.13
2018-08-10T10:05:46.734Z,42.73
2018-08-10T10:08:15.539Z,44.89
2018-08-10T10:10:43.970Z,43.67
2018-08-10T10:13:12.887Z,44.74
2018-08-10T10:15:42.064Z,46.63
2018-08-10T10:18:13.670Z,44.83
2018-08-10T10:20:42.563Z,45.36
2018-08-10T10:23:11.126Z,44.71
2018-08-10T10:25:39.775Z,45.18
2018-08-10T10:28:08.395Z,45.58
2018-08-10T10:30:36.887Z,45.47
2018-08-10T10:33:05.789Z,44.98
2018-08-10T10:35:34.284Z,44.33
2018-08-10T10:38:02.710Z,43.65
2018-08-10T10:40:31.439Z,42.88
2018-08-10T10:42:59.915Z,43.30
2018-08-10T10:45:28.382Z,43.49
2018-08-10T10:47:56.959Z,41.77
2018-08-10T10:50:25.406Z,42.27
2018-08-10T10:52:53.835Z,40.71
2018-08-10T10:55:22.439Z,40.07
2018-08-10T10:57:50.875Z,40.62
2018-08-10T11:00:20.577Z,39.42
2018-08-10T11:02:49.623Z,39.69
2018-08-10T11:05:18.404Z,38.72
2018-08-10T11:07:50.858Z,38.65
2018-08-10T11:10:20.045Z,38.94
2018-08-10T11:12:48.486Z,37.74
2018-08-10T11:15:16.914Z,38.31
2018-08-10T11:17:45.340Z,38.75
2018-08-10T11:20:14.423Z,37.97
2018-08-10T11:22:43.287Z,37.32
2018-08-10T11:25:13.085Z,37.98
2018-08-10T11:27:42.259Z,37.88
2018-08-10T11:30:11.337Z,38.54
2018-08-10T11:32:40.043Z,40.45
2018-08-10T11:35:09.283Z,40.36
2018-08-10T11:37:38.028Z,40.76
2018-08-10T11:40:10.191Z,37.19
2018-08-10T11:42:38.935Z,37.68
2018-08-10T11:45:09.763Z,38.58
2018-08-10T11:47:38.739Z,37.57
2018-08-10T11:50:07.566Z,39.36
2018-08-10T11:52:36.360Z,38.20
2018-08-10T11:55:05.387Z,37.28
2018-08-10T11:57:33.876Z,37.18
2018-08-10T12:00:02.361Z,35.63
2018-08-10T12:02:30.755Z,36.86
2018-08-10T12:04:59.164Z,36.90
2018-08-10T12:07:27.627Z,38.28
2018-08-10T12:09:56.618Z,37.33
2018-08-10T12:12:25.054Z,36.17
2018-08-10T12:14:53.801Z,37.37
2018-08-10T12:17:22.372Z,37.51
2018-08-10T12:19:50.891Z,37.44
2018-08-10T12:22:19.347Z,37.01
2018-08-10T12:24:47.870Z,35.86
2018-08-10T12:27:16.284Z,37.48
2018-08-10T12:29:44.843Z,37.29
2018-08-10T12:32:13.235Z,35.74
2018-08-10T12:34:41.631Z,35.99
2018-08-10T12:37:10.108Z,36.72
2018-08-10T12:39:38.530Z,37.28
2018-08-10T12:42:07.175Z,37.23
2018-08-10T12:44:35.707Z,38.07
2018-08-10T12:47:04.173Z,39.06
2018-08-10T12:49:32.560Z,39.80
2018-08-10T12:52:01.190Z,39.78
2018-08-10T12:54:29.715Z,39.42
2018-08-10T12:56:58.160Z,38.31
2018-08-10T12:59:26.662Z,38.54
2018-08-10T13:01:55.222Z,38.79
2018-08-10T13:04:23.715Z,37.52
2018-08-10T13:06:52.382Z,38.84
2018-08-10T13:09:20.771Z,39.08
2018-08-10T13:11:49.222Z,38.93
2018-08-10T13:14:17.897Z,38.56
2018-08-10T13:16:46.355Z,38.73
2018-08-10T13:19:14.811Z,37.35
2018-08-10T13:21:43.442Z,36.77
2018-08-10T13:24:11.961Z,36.86
2018-08-10T13:26:40.407Z,37.41
2018-08-10T13:29:08.863Z,38.14
2018-08-10T13:31:37.363Z,36.43
2018-08-10T13:34:05.835Z,37.48
2018-08-10T13:36:34.280Z,37.10
2018-08-10T13:39:02.735Z,36.33
2018-08-10T13:41:31.227Z,35.16
2018-08-10T13:43:59.979Z,35.97
2018-08-10T13:46:28.498Z,35.30
2018-08-10T13:48:56.932Z,34.80
2018-08-10T13:51:25.399Z,35.27
2018-08-10T13:53:53.911Z,35.07
2018-08-10T13:56:22.435Z,34.34
2018-08-10T13:58:51.045Z,34.69
2018-08-10T14:01:19.498Z,35.37
2018-08-10T14:03:47.992Z,36.49
2018-08-10T14:06:16.614Z,36.80
2018-08-10T14:08:45.060Z,36.83
2018-08-10T14:11:13.548Z,35.87
2018-08-10T14:13:42.051Z,35.39
2018-08-10T14:16:10.579Z,35.36
2018-08-10T14:18:39.007Z,35.57
2018-08-10T14:21:07.763Z,37.06
2018-08-10T14:23:36.199Z,36.61
2018-08-10T14:26:04.747Z,35.79
2018-08-10T14:28:33.742Z,36.79
2018-08-10T14:31:02.222Z,33.88
2018-08-10T14:33:30.894Z,35.65
2018-08-10T14:35:59.327Z,36.08
2018-08-10T14:38:27.739Z,35.13
2018-08-10T14:40:56.230Z,35.84
2018-08-10T14:43:25.068Z,35.92
2018-08-10T14:45:53.540Z,35.96
2018-08-10T14:48:22.008Z,34.33
2018-08-10T14:50:50.443Z,33.78
2018-08-10T14:53:18.871Z,33.93
2018-08-10T14:55:47.354Z,32.66
2018-08-10T14:58:16.033Z,32.37
2018-08-10T15:00:44.516Z,31.62
2018-08-10T15:03:12.855Z,33.08
2018-08-10T15:05:41.291Z,33.51
2018-08-10T15:08:09.703Z,34.34
2018-08-10T15:10:38.251Z,34.25
2018-08-10T15:13:06.840Z,34.09
2018-08-10T15:15:35.135Z,32.63
2018-08-10T15:18:03.547Z,32.57
2018-08-10T15:20:32.149Z,33.33
2018-08-10T15:23:00.735Z,33.83
2018-08-10T15:25:29.211Z,33.87
2018-08-10T15:27:57.851Z,34.14
2018-08-10T15:30:26.583Z,33.39
2018-08-10T15:32:55.115Z,33.91
2018-08-10T15:35:23.567Z,34.32
2018-08-10T15:37:52.044Z,34.41
2018-08-10T15:40:20.770Z,33.49
2018-08-10T15:42:49.435Z,33.88
2018-08-10T15:45:18.603Z,34.54
2018-08-10T15:47:47.481Z,34.55
2018-08-10T15:50:16.244Z,35.33
2018-08-10T15:52:45.770Z,35.13
2018-08-10T15:55:14.907Z,35.25
2018-08-10T15:57:43.693Z,35.56
2018-08-10T16:00:18.588Z,34.73
2018-08-10T16:02:47.415Z,35.41
2018-08-10T16:05:15.888Z,35.05
2018-08-10T16:07:44.743Z,34.63
2018-08-10T16:10:13.715Z,35.14
2018-08-10T16:12:42.183Z,34.89
2018-08-10T16:15:16.444Z,34.75
2018-08-10T16:17:44.943Z,36.21
2018-08-10T16:20:15.388Z,35.48
2018-08-10T16:22:43.814Z,35.88
2018-08-10T16:25:12.599Z,35.50
2018-08-10T16:27:42.332Z,34.80
2018-08-10T16:30:12.691Z,36.43
2018-08-10T16:32:42.102Z,34.97
2018-08-10T16:35:11.785Z,36.28
2018-08-10T16:37:41.472Z,36.50
2018-08-10T16:40:10.976Z,36.70
2018-08-10T16:42:40.619Z,36.46
2018-08-10T16:45:09.811Z,37.30
2018-08-10T16:47:39.039Z,36.12
2018-08-10T16:50:10.851Z,37.09
2018-08-10T16:52:40.647Z,38.04
2018-08-10T16:55:12.895Z,38.37
2018-08-10T16:57:42.553Z,38.02
2018-08-10T17:00:12.987Z,37.69
2018-08-10T17:02:41.462Z,37.83
2018-08-10T17:05:10.963Z,37.51
2018-08-10T17:07:40.199Z,37.30
2018-08-10T17:10:09.001Z,37.21
2018-08-10T17:12:39.138Z,37.47
2018-08-10T17:15:10.142Z,37.55
2018-08-10T17:17:38.659Z,37.77
2018-08-10T17:20:07.412Z,36.79
2018-08-10T17:22:35.852Z,37.70
2018-08-10T17:25:05.288Z,36.62
2018-08-10T17:27:33.725Z,36.33
2018-08-10T17:30:02.130Z,37.39
2018-08-10T17:32:30.626Z,37.45
2018-08-10T17:34:59.138Z,37.79
2018-08-10T17:37:27.607Z,38.28
2018-08-10T17:39:56.476Z,37.09
2018-08-10T17:42:24.947Z,38.41
2018-08-10T17:44:53.399Z,38.05
2018-08-10T17:47:22.530Z,38.45
2018-08-10T17:49:51.000Z,38.69
2018-08-10T17:52:19.426Z,37.65
2018-08-10T17:54:48.058Z,39.70
2018-08-10T17:57:16.483Z,37.96
2018-08-10T17:59:44.882Z,38.86
2018-08-10T18:02:13.641Z,39.66
2018-08-10T18:04:42.152Z,38.67
2018-08-10T18:07:10.665Z,38.90
2018-08-10T18:09:39.363Z,39.19
2018-08-10T18:12:07.854Z,39.74
2018-08-10T18:14:36.379Z,40.70
2018-08-10T18:17:04.870Z,40.88
2018-08-10T18:19:33.439Z,40.51
2018-08-10T18:22:01.943Z,40.52
2018-08-10T18:24:30.799Z,40.61
2018-08-10T18:26:59.352Z,39.69
2018-08-10T18:29:27.807Z,40.24
2018-08-10T18:31:56.247Z,39.44
2018-08-10T18:34:24.799Z,40.52
2018-08-10T18:36:53.339Z,41.25
2018-08-10T18:39:21.854Z,41.13
2018-08-10T18:41:50.263Z,41.82
2018-08-10T18:44:18.699Z,40.53
2018-08-10T18:46:47.617Z,39.79
2018-08-10T18:49:16.083Z,40.45
2018-08-10T18:51:44.548Z,41.25
2018-08-10T18:54:13.300Z,41.83
2018-08-10T18:56:41.712Z,42.84
2018-08-10T18:59:10.240Z,43.30
2018-08-10T19:01:39.059Z,42.59
2018-08-10T19:04:07.567Z,44.80
2018-08-10T19:06:36.168Z,45.11
2018-08-10T19:09:07.646Z,45.03
2018-08-10T19:11:36.200Z,44.36
2018-08-10T19:14:04.771Z,44.95
2018-08-10T19:16:33.345Z,45.67
2018-08-10T19:19:02.211Z,46.06
2018-08-10T19:21:31.315Z,45.71
2018-08-10T19:24:00.359Z,45.35
2018-08-10T19:26:29.352Z,44.80
2018-08-10T19:28:58.713Z,44.38
2018-08-10T19:31:27.771Z,47.79
2018-08-10T19:33:57.569Z,49.33
2018-08-10T19:36:26.427Z,50.53
2018-08-10T19:38:56.885Z,52.23
2018-08-10T19:41:26.142Z,51.48
2018-08-10T19:43:55.099Z,47.86
2018-08-10T19:46:24.035Z,48.00
2018-08-10T19:48:53.915Z,49.81
2018-08-10T19:51:22.778Z,50.51
2018-08-10T19:53:51.897Z,52.21
2018-08-10T19:56:20.865Z,52.48
2018-08-10T19:58:49.750Z,54.10
2018-08-10T20:01:19.139Z,53.92
2018-08-10T20:03:48.424Z,55.07
2018-08-10T20:06:17.827Z,55.50
2018-08-10T20:08:47.105Z,55.37
2018-08-10T20:11:16.581Z,55.73
2018-08-10T20:13:45.683Z,56.33
2018-08-10T20:16:15.062Z,57.54
2018-08-10T20:18:44.273Z,56.61
2018-08-10T20:21:13.714Z,56.53
2018-08-10T20:23:42.955Z,57.02
2018-08-10T20:26:12.448Z,56.87
2018-08-10T20:28:41.548Z,56.40
2018-08-10T20:31:10.675Z,55.99
2018-08-10T20:33:40.405Z,57.17
2018-08-10T20:36:09.749Z,57.60
2018-08-10T20:38:38.785Z,57.54
2018-08-10T20:41:07.949Z,57.38
2018-08-10T20:43:36.845Z,57.65
2018-08-10T20:46:05.688Z,59.14
2018-08-10T20:48:35.681Z,58.90
2018-08-10T20:51:04.651Z,60.25
2018-08-10T20:53:33.930Z,60.49
2018-08-10T20:56:03.021Z,61.42
2018-08-10T20:58:32.056Z,61.97
2018-08-10T21:01:00.964Z,60.88
2018-08-10T21:03:29.688Z,61.62
2018-08-10T21:05:58.725Z,61.94
2018-08-10T21:08:27.417Z,62.71
2018-08-10T21:10:56.091Z,62.70
2018-08-10T21:13:24.860Z,62.46
2018-08-10T21:15:53.750Z,63.08
2018-08-10T21:18:22.361Z,63.05
2018-08-10T21:20:50.848Z,63.33
2018-08-10T21:23:19.347Z,62.97
2018-08-10T21:25:47.853Z,63.20
2018-08-10T21:28:16.303Z,63.28
2018-08-10T21:30:44.769Z,63.96
2018-08-10T21:33:13.196Z,64.45
2018-08-10T21:35:41.920Z,64.07
2018-08-10T21:38:10.323Z,63.66
2018-08-10T21:40:38.742Z,64.21
2018-08-10T21:43:07.251Z,64.12
2018-08-10T21:45:35.719Z,65.43
2018-08-10T21:48:04.201Z,65.53
2018-08-10T21:50:32.763Z,64.60
2018-08-10T21:53:01.243Z,64.99
2018-08-10T21:55:29.671Z,66.06
2018-08-10T21:57:58.093Z,65.85
2018-08-10T22:00:39.947Z,65.87
2018-08-10T22:03:09.863Z,65.52
2018-08-10T22:05:38.303Z,67.46
2018-08-10T22:08:06.937Z,66.63
2018-08-10T22:10:35.890Z,67.11
2018-08-10T22:13:04.392Z,66.13
2018-08-10T22:15:38.211Z,66.55
2018-08-10T22:18:11.947Z,66.66
2018-08-10T22:20:40.719Z,66.47
2018-08-10T22:23:09.143Z,67.04
2018-08-10T22:25:37.589Z,67.78
2018-08-10T22:28:06.095Z,68.66
2018-08-10T22:30:34.546Z,69.55
2018-08-10T22:33:03.071Z,69.32
2018-08-10T22:35:31.583Z,69.24
2018-08-10T22:38:00.109Z,69.19
2018-08-10T22:40:28.710Z,68.39
2018-08-10T22:42:57.467Z,68.64
2018-08-10T22:45:25.853Z,69.26
2018-08-10T22:47:54.299Z,69.60
2018-08-10T22:50:22.963Z,71.39
2018-08-10T22:52:51.387Z,70.69
2018-08-10T22:55:19.974Z,70.97
2018-08-10T22:57:48.746Z,69.22
2018-08-10T23:00:17.396Z,70.27
2018-08-10T23:02:45.863Z,70.38
2018-08-10T23:05:14.375Z,70.71
2018-08-10T23:07:43.103Z,71.26
2018-08-10T23:10:12.931Z,72.42
2018-08-10T23:12:41.845Z,72.90
2018-08-10T23:15:10.767Z,72.92
2018-08-10T23:17:39.748Z,71.64
2018-08-10T23:20:10.957Z,73.16
2018-08-10T23:22:39.471Z,73.32
2018-08-10T23:25:10.407Z,73.03
2018-08-10T23:27:38.959Z,73.30
2018-08-10T23:30:10.247Z,73.60
2018-08-10T23:32:38.775Z,73.58
2018-08-10T23:35:07.762Z,73.94
2018-08-10T23:37:36.714Z,75.04
2018-08-10T23:40:07.468Z,75.66
2018-08-10T23:42:35.964Z,75.51
2018-08-10T23:45:05.463Z,76.13
2018-08-10T23:47:33.935Z,75.73
2018-08-10T23:50:02.414Z,76.10
2018-08-10T23:52:31.031Z,75.78
2018-08-10T23:54:59.443Z,75.89
2018-08-10T23:57:28.065Z,76.26
2018-08-10T23:59:56.512Z,75.43
